Time;durP1;ratioP1;P1;durP2;ratioP2;P2;SDS_P1;SDS_P2;PMS_P1;PMS_P2;Temp;Humidity;BMP_temperature;BMP_pressure;BME280_temperature;BME280_humidity;BME280_pressure;Samples;Min_cycle;Max_cycle;Signal;HPM_P1;HPM_P2
2022/10/23 00:02:20;;;;;;;;;;;12.30;99.90;;;;;;4968563;28;19914;-77
2022/10/23 00:04:45;;;;;;;;;;;12.30;99.90;;;;;;4964453;28;19920;-76
2022/10/23 00:07:10;;;;;;;;;;;12.20;99.90;;;;;;4962767;28;20373;-76
2022/10/23 00:09:36;;;;;;;;;;;12.00;99.90;;;;;;4967520;28;19921;-76
2022/10/23 00:12:01;;;;;;;;;;;11.90;99.90;;;;;;4962756;28;19906;-76
2022/10/23 00:14:27;;;;;;;;;;;11.80;99.90;;;;;;4962025;28;19957;-76
2022/10/23 00:16:52;;;;;;;;;;;11.70;99.90;;;;;;4967681;28;19906;-77
2022/10/23 00:19:18;;;;;;;;;;;11.60;99.90;;;;;;4959329;28;20046;-77
2022/10/23 00:21:43;;;;;;;;;;;11.50;99.90;;;;;;4964646;28;20263;-77
2022/10/23 00:24:09;;;;;;;;;;;11.40;99.90;;;;;;4956253;28;19920;-77
2022/10/23 00:26:36;;;;;;;;;;;11.30;99.90;;;;;;4948645;28;19906;-77
2022/10/23 00:29:02;;;;;;;;;;;11.20;99.90;;;;;;4955185;28;19941;-76
2022/10/23 00:31:28;;;;;;;;;;;11.20;99.90;;;;;;4964070;28;20397;-77
2022/10/23 00:33:53;;;;;;;;;;;11.30;99.90;;;;;;4965469;28;19914;-77
2022/10/23 00:36:19;;;;;;;;;;;11.50;99.90;;;;;;4969433;28;19956;-77
2022/10/23 00:38:45;;;;;;;;;;;11.80;99.90;;;;;;4965009;28;20005;-77
2022/10/23 00:41:16;;;;;;;;;;;12.00;99.90;;;;;;4967809;28;20001;-77
2022/10/23 00:43:55;;;;;;;;;;;12.00;99.90;;;;;;4966451;28;19921;-76
2022/10/23 00:46:21;;;;;;;;;;;12.40;99.90;;;;;;4963528;28;20429;-77
2022/10/23 00:48:46;;;;;;;;;;;12.60;99.90;;;;;;4965333;28;20001;-76
2022/10/23 00:51:11;;;;;;;;;;;12.70;99.90;;;;;;4962067;28;19918;-77
2022/10/23 00:53:37;;;;;;;;;;;12.70;99.90;;;;;;4961832;28;19914;-77
2022/10/23 00:56:03;;;;;;;;;;;12.90;99.90;;;;;;4965360;28;19910;-76
2022/10/23 00:58:28;;;;;;;;;;;12.90;99.90;;;;;;4967226;28;19997;-76
2022/10/23 01:00:55;;;;;;;;;;;13.00;99.90;;;;;;4963895;28;20343;-77
2022/10/23 01:03:22;;;;;;;;;;;13.00;99.90;;;;;;4965374;28;19914;-77
2022/10/23 01:05:47;;;;;;;;;;;13.10;99.90;;;;;;4960910;28;20005;-77
2022/10/23 01:08:41;;;;;;;;;;;13.10;99.90;;;;;;4964785;28;19993;-77
2022/10/23 01:11:23;;;;;;;;;;;13.10;99.90;;;;;;4950103;28;19964;-77
2022/10/23 01:13:58;;;;;;;;;;;13.10;99.90;;;;;;4966565;28;19971;-77
2022/10/23 01:16:33;;;;;;;;;;;13.20;99.90;;;;;;4958393;28;20288;-76
2022/10/23 01:19:18;;;;;;;;;;;13.20;99.90;;;;;;4964130;28;20436;-77
2022/10/23 01:21:50;;;;;;;;;;;13.20;99.90;;;;;;4965110;28;20354;-77
2022/10/23 01:24:42;;;;;;;;;;;13.20;99.90;;;;;;4967832;28;19948;-76
2022/10/23 01:27:24;;;;;;;;;;;13.10;99.90;;;;;;4964916;28;19925;-76
2022/10/23 01:30:00;;;;;;;;;;;13.10;99.90;;;;;;4964623;28;19985;-76
2022/10/23 01:32:32;;;;;;;;;;;13.20;99.90;;;;;;4968432;28;19921;-76
2022/10/23 01:35:05;;;;;;;;;;;13.20;99.90;;;;;;4971073;28;20373;-76
2022/10/23 01:37:42;;;;;;;;;;;13.20;99.90;;;;;;4967456;28;19910;-76
2022/10/23 01:40:13;;;;;;;;;;;13.20;99.90;;;;;;4969164;28;19910;-76
2022/10/23 01:42:42;;;;;;;;;;;13.10;99.90;;;;;;4963150;28;20451;-76
2022/10/23 01:45:20;;;;;;;;;;;13.10;99.90;;;;;;4968694;28;19918;-76
2022/10/23 01:47:46;;;;;;;;;;;13.10;99.90;;;;;;4967865;28;19965;-76
2022/10/23 01:50:13;;;;;;;;;;;13.10;99.90;;;;;;4970104;28;20423;-76
2022/10/23 01:52:39;;;;;;;;;;;13.10;99.90;;;;;;4969674;28;19961;-76
2022/10/23 01:55:06;;;;;;;;;;;13.10;99.90;;;;;;4966108;28;20297;-76
2022/10/23 01:57:32;;;;;;;;;;;13.10;99.90;;;;;;4970679;28;20431;-76
2022/10/23 02:00:00;;;;;;;;;;;13.10;99.90;;;;;;4971618;28;20411;-76
2022/10/23 02:02:26;;;;;;;;;;;13.00;99.90;;;;;;4973011;28;19910;-76
2022/10/23 02:05:07;;;;;;;;;;;13.10;99.90;;;;;;4971342;28;19969;-76
2022/10/23 02:07:33;;;;;;;;;;;13.20;99.90;;;;;;4970432;28;19925;-76
2022/10/23 02:09:58;;;;;;;;;;;13.10;99.90;;;;;;4968794;28;19913;-76
2022/10/23 02:12:30;;;;;;;;;;;13.00;99.90;;;;;;4970465;28;20271;-76
2022/10/23 02:15:22;;;;;;;;;;;12.80;99.90;;;;;;4969974;28;19921;-76
2022/10/23 02:18:01;;;;;;;;;;;13.00;99.90;;;;;;4964942;28;19910;-76
2022/10/23 02:20:35;;;;;;;;;;;13.10;99.90;;;;;;4964699;28;19910;-76
2022/10/23 02:23:12;;;;;;;;;;;13.10;99.90;;;;;;4967017;28;19918;-77
2022/10/23 02:25:42;;;;;;;;;;;13.20;99.90;;;;;;4968516;28;19914;-77
2022/10/23 02:28:10;;;;;;;;;;;13.20;99.90;;;;;;4968443;28;19917;-77
2022/10/23 02:30:37;;;;;;;;;;;13.20;99.90;;;;;;4982608;23;19925;-77
2022/10/23 02:33:03;;;;;;;;;;;13.20;99.90;;;;;;4996798;28;19913;-77
2022/10/23 02:35:29;;;;;;;;;;;13.20;99.90;;;;;;4984003;28;19913;-77
2022/10/23 02:37:56;;;;;;;;;;;13.30;99.90;;;;;;4995370;28;19910;-77
2022/10/23 02:40:22;;;;;;;;;;;13.20;99.90;;;;;;4985362;28;20073;-77
2022/10/23 02:42:53;;;;;;;;;;;13.20;99.90;;;;;;4985879;28;19910;-77
2022/10/23 02:45:29;;;;;;;;;;;13.10;99.90;;;;;;4988925;28;20029;-76
2022/10/23 02:48:07;;;;;;;;;;;13.10;99.90;;;;;;4989027;28;20439;-76
2022/10/23 02:50:51;;;;;;;;;;;13.20;99.90;;;;;;4984036;28;19917;-76
2022/10/23 02:53:25;;;;;;;;;;;13.20;99.90;;;;;;4987555;28;20763;-76
2022/10/23 02:56:02;;;;;;;;;;;13.00;99.90;;;;;;4983883;28;19910;-77
2022/10/23 02:58:34;;;;;;;;;;;12.90;99.90;;;;;;4988936;28;19909;-77
2022/10/23 03:01:18;;;;;;;;;;;12.90;99.90;;;;;;4980018;28;20363;-77
2022/10/23 03:03:46;;;;;;;;;;;12.70;99.90;;;;;;4989629;28;19917;-77
2022/10/23 03:06:11;;;;;;;;;;;12.70;99.90;;;;;;4980580;28;19918;-77
2022/10/23 03:08:44;;;;;;;;;;;12.60;99.90;;;;;;4987757;28;19916;-77
2022/10/23 03:11:10;;;;;;;;;;;12.40;99.90;;;;;;4990365;28;19920;-76
2022/10/23 03:13:35;;;;;;;;;;;12.20;99.90;;;;;;4983989;28;20292;-76
2022/10/23 03:16:01;;;;;;;;;;;12.10;99.90;;;;;;4989040;28;19956;-77
2022/10/23 03:18:26;;;;;;;;;;;11.90;99.90;;;;;;4994126;28;20365;-76
2022/10/23 03:20:52;;;;;;;;;;;11.80;99.90;;;;;;4990980;28;19921;-77
2022/10/23 03:23:17;;;;;;;;;;;11.80;99.90;;;;;;4993152;28;19917;-76
2022/10/23 03:25:43;;;;;;;;;;;11.70;99.90;;;;;;4985650;28;19937;-76
2022/10/23 03:28:08;;;;;;;;;;;11.70;99.90;;;;;;4986736;28;19916;-76
2022/10/23 03:30:33;;;;;;;;;;;11.80;99.90;;;;;;4972522;28;19924;-77
2022/10/23 03:32:59;;;;;;;;;;;11.80;99.90;;;;;;4967237;28;19916;-77
2022/10/23 03:35:24;;;;;;;;;;;11.70;99.90;;;;;;4979812;28;20320;-76
2022/10/23 03:37:49;;;;;;;;;;;11.60;99.90;;;;;;4970469;28;19918;-77
2022/10/23 03:40:15;;;;;;;;;;;11.50;99.90;;;;;;4961506;28;19957;-76
2022/10/23 03:42:40;;;;;;;;;;;11.50;99.90;;;;;;4960750;28;19917;-76
2022/10/23 03:45:06;;;;;;;;;;;11.40;99.90;;;;;;4962661;28;19910;-77
2022/10/23 03:47:34;;;;;;;;;;;11.30;99.90;;;;;;4966197;28;19921;-77
2022/10/23 03:50:00;;;;;;;;;;;11.20;99.90;;;;;;4970574;28;19913;-77
2022/10/23 03:52:25;;;;;;;;;;;11.10;99.90;;;;;;4968174;28;19937;-77
2022/10/23 03:54:50;;;;;;;;;;;11.00;99.90;;;;;;4954300;28;19956;-77
2022/10/23 03:57:16;;;;;;;;;;;10.90;99.90;;;;;;4960282;28;19910;-76
2022/10/23 03:59:41;;;;;;;;;;;10.80;99.90;;;;;;4957995;28;20357;-77
2022/10/23 04:02:06;;;;;;;;;;;10.80;99.90;;;;;;4960295;28;19914;-76
2022/10/23 04:04:32;;;;;;;;;;;10.70;99.90;;;;;;4968663;28;19917;-76
2022/10/23 04:06:57;;;;;;;;;;;10.70;99.90;;;;;;4968899;28;19917;-76
2022/10/23 04:09:23;;;;;;;;;;;10.60;99.90;;;;;;4964638;28;19910;-76
2022/10/23 04:11:48;;;;;;;;;;;10.50;99.90;;;;;;4964126;28;19923;-77
2022/10/23 04:14:13;;;;;;;;;;;10.50;99.90;;;;;;4959477;28;19914;-77
2022/10/23 04:16:39;;;;;;;;;;;10.40;99.90;;;;;;4969374;28;19917;-76
2022/10/23 04:19:04;;;;;;;;;;;10.30;99.90;;;;;;4977145;28;19910;-76
2022/10/23 04:21:30;;;;;;;;;;;10.20;99.90;;;;;;4974285;28;19914;-77
2022/10/23 04:23:55;;;;;;;;;;;10.10;99.90;;;;;;4970539;28;19917;-77
2022/10/23 04:26:21;;;;;;;;;;;10.00;99.90;;;;;;4954490;28;19918;-76
2022/10/23 04:28:46;;;;;;;;;;;10.00;99.90;;;;;;4972779;28;19988;-77
2022/10/23 04:31:11;;;;;;;;;;;10.00;99.90;;;;;;4963679;28;20328;-77
2022/10/23 04:33:37;;;;;;;;;;;10.00;99.90;;;;;;4963378;28;19910;-76
2022/10/23 04:36:02;;;;;;;;;;;9.90;99.90;;;;;;4966447;28;21374;-78
2022/10/23 04:38:28;;;;;;;;;;;9.90;99.90;;;;;;4980168;28;19918;-77
2022/10/23 04:40:53;;;;;;;;;;;9.90;99.90;;;;;;4955899;28;19939;-76
2022/10/23 04:43:18;;;;;;;;;;;9.90;99.90;;;;;;4959582;28;19922;-76
2022/10/23 04:45:44;;;;;;;;;;;9.90;99.90;;;;;;4959902;28;19996;-76
2022/10/23 04:48:09;;;;;;;;;;;9.80;99.90;;;;;;4966783;28;20269;-76
2022/10/23 04:50:35;;;;;;;;;;;9.90;99.90;;;;;;4969429;28;19913;-76
2022/10/23 04:53:00;;;;;;;;;;;9.90;99.90;;;;;;4968013;28;19921;-76
2022/10/23 04:55:25;;;;;;;;;;;9.80;99.90;;;;;;4957612;28;19910;-76
2022/10/23 04:57:51;;;;;;;;;;;9.70;99.90;;;;;;4955439;28;19914;-76
2022/10/23 05:00:17;;;;;;;;;;;9.60;99.90;;;;;;4952781;28;19910;-76
2022/10/23 05:02:42;;;;;;;;;;;9.70;99.90;;;;;;4964518;28;20281;-77
2022/10/23 05:05:08;;;;;;;;;;;9.70;99.90;;;;;;4955107;28;20342;-77
2022/10/23 05:07:33;;;;;;;;;;;9.70;99.90;;;;;;4961550;28;19965;-77
2022/10/23 05:09:59;;;;;;;;;;;9.70;99.90;;;;;;4952561;28;19914;-77
2022/10/23 05:12:26;;;;;;;;;;;9.70;99.90;;;;;;4967291;28;19910;-77
2022/10/23 05:14:51;;;;;;;;;;;9.60;99.90;;;;;;4970851;28;20324;-76
2022/10/23 05:17:27;;;;;;;;;;;9.70;99.90;;;;;;4966390;28;19915;-77
2022/10/23 05:19:54;;;;;;;;;;;9.70;99.90;;;;;;4958348;28;19917;-77
2022/10/23 05:22:21;;;;;;;;;;;9.80;99.90;;;;;;4974256;28;20101;-77
2022/10/23 05:24:47;;;;;;;;;;;9.80;99.90;;;;;;4989501;28;20349;-77
2022/10/23 05:27:13;;;;;;;;;;;9.80;99.90;;;;;;4965017;28;19913;-77
2022/10/23 05:29:38;;;;;;;;;;;9.80;99.90;;;;;;4961122;28;19924;-77
2022/10/23 05:32:05;;;;;;;;;;;9.80;99.90;;;;;;4958528;28;19922;-77
2022/10/23 05:34:31;;;;;;;;;;;9.80;99.90;;;;;;4960990;28;20329;-76
2022/10/23 05:36:57;;;;;;;;;;;9.90;99.90;;;;;;4981061;28;20081;-76
2022/10/23 05:39:22;;;;;;;;;;;9.80;99.90;;;;;;4963208;28;20005;-77
2022/10/23 05:41:48;;;;;;;;;;;9.70;99.90;;;;;;4958554;28;19949;-77
2022/10/23 05:44:14;;;;;;;;;;;9.70;99.90;;;;;;4964509;28;19941;-77
2022/10/23 05:49:28;;;;;;;;;;;9.70;99.90;;;;;;4958354;28;20289;-77
2022/10/23 05:51:53;;;;;;;;;;;9.60;99.90;;;;;;4956942;28;19910;-77
2022/10/23 05:54:19;;;;;;;;;;;9.60;99.90;;;;;;4963718;28;19965;-77
2022/10/23 05:56:44;;;;;;;;;;;9.50;99.90;;;;;;4965931;28;19906;-77
2022/10/23 05:59:10;;;;;;;;;;;9.50;99.90;;;;;;4960803;28;19914;-77
2022/10/23 06:01:36;;;;;;;;;;;9.50;99.90;;;;;;4960448;28;19964;-77
2022/10/23 06:04:02;;;;;;;;;;;9.50;99.90;;;;;;4979511;28;19917;-77
2022/10/23 06:06:27;;;;;;;;;;;9.40;99.90;;;;;;4966089;28;20000;-77
2022/10/23 06:08:53;;;;;;;;;;;9.30;99.90;;;;;;4958302;28;20361;-77
2022/10/23 06:11:18;;;;;;;;;;;9.30;99.90;;;;;;4957397;28;19914;-78
2022/10/23 06:13:44;;;;;;;;;;;9.30;99.90;;;;;;4962845;28;19945;-77
2022/10/23 06:16:11;;;;;;;;;;;9.40;99.90;;;;;;4960919;28;19914;-77
2022/10/23 06:18:37;;;;;;;;;;;9.40;99.90;;;;;;4960362;28;19917;-77
2022/10/23 06:21:02;;;;;;;;;;;9.40;99.90;;;;;;4967283;28;19910;-77
2022/10/23 06:23:29;;;;;;;;;;;9.40;99.90;;;;;;4967437;28;19913;-77
2022/10/23 06:25:55;;;;;;;;;;;9.40;99.90;;;;;;4965945;28;20012;-77
2022/10/23 06:28:20;;;;;;;;;;;9.30;99.90;;;;;;4979733;28;19914;-77
2022/10/23 06:30:46;;;;;;;;;;;9.30;99.90;;;;;;4978817;28;19918;-77
2022/10/23 06:33:11;;;;;;;;;;;9.30;99.90;;;;;;4970926;28;20357;-77
2022/10/23 06:35:37;;;;;;;;;;;9.30;99.90;;;;;;4978884;28;19914;-77
2022/10/23 06:38:02;;;;;;;;;;;9.40;99.90;;;;;;4971987;28;20276;-77
2022/10/23 06:40:28;;;;;;;;;;;9.40;99.90;;;;;;4970494;28;19964;-76
2022/10/23 06:42:54;;;;;;;;;;;9.50;99.90;;;;;;4963684;28;19914;-77
2022/10/23 06:45:19;;;;;;;;;;;9.70;99.90;;;;;;4969339;28;19916;-76
2022/10/23 06:47:48;;;;;;;;;;;10.00;99.90;;;;;;4962048;28;19911;-75
2022/10/23 06:50:14;;;;;;;;;;;10.10;99.90;;;;;;4975755;28;19953;-77
2022/10/23 06:52:39;;;;;;;;;;;10.30;99.90;;;;;;4967785;28;19956;-77
2022/10/23 06:55:05;;;;;;;;;;;10.40;99.90;;;;;;4962771;28;20634;-77
2022/10/23 06:57:30;;;;;;;;;;;10.50;99.90;;;;;;4965147;28;19914;-77
2022/10/23 06:59:56;;;;;;;;;;;10.50;99.90;;;;;;4968814;28;19914;-77
2022/10/23 07:02:21;;;;;;;;;;;10.50;99.90;;;;;;4962100;28;19917;-77
2022/10/23 07:04:46;;;;;;;;;;;10.50;99.90;;;;;;4965944;28;20267;-77
2022/10/23 07:07:12;;;;;;;;;;;10.60;99.90;;;;;;4964536;28;20381;-77
2022/10/23 07:09:37;;;;;;;;;;;10.60;99.90;;;;;;4959793;28;19917;-77
2022/10/23 07:12:03;;;;;;;;;;;10.60;99.90;;;;;;4966055;28;20292;-77
2022/10/23 07:14:31;;;;;;;;;;;10.70;99.90;;;;;;4962487;28;19915;-77
2022/10/23 07:16:56;;;;;;;;;;;10.70;99.90;;;;;;4967960;28;19941;-77
2022/10/23 07:19:22;;;;;;;;;;;10.80;99.90;;;;;;4968997;28;19953;-77
2022/10/23 07:21:47;;;;;;;;;;;10.90;99.90;;;;;;4965135;28;19930;-76
2022/10/23 07:24:15;;;;;;;;;;;11.10;99.90;;;;;;4961851;28;19965;-77
2022/10/23 07:26:40;;;;;;;;;;;11.30;99.90;;;;;;4967688;28;19969;-76
2022/10/23 07:29:06;;;;;;;;;;;11.50;99.90;;;;;;4959278;28;19910;-76
2022/10/23 07:31:32;;;;;;;;;;;11.70;99.90;;;;;;4958458;28;20722;-76
2022/10/23 07:33:57;;;;;;;;;;;11.80;99.90;;;;;;4959802;28;19918;-76
2022/10/23 07:36:23;;;;;;;;;;;12.00;99.90;;;;;;4959431;28;19925;-77
2022/10/23 07:38:49;;;;;;;;;;;12.30;99.90;;;;;;4959301;28;19914;-78
2022/10/23 07:41:15;;;;;;;;;;;12.50;99.90;;;;;;4965847;28;19941;-79
2022/10/23 07:43:40;;;;;;;;;;;12.60;99.90;;;;;;4959686;28;19949;-79
2022/10/23 07:46:08;;;;;;;;;;;12.80;99.90;;;;;;4966243;28;19920;-78
2022/10/23 07:48:34;;;;;;;;;;;12.90;99.90;;;;;;4959155;28;19910;-85
2022/10/23 07:51:00;;;;;;;;;;;12.90;99.90;;;;;;4965785;28;19921;-78
2022/10/23 07:53:26;;;;;;;;;;;13.00;99.90;;;;;;4968267;28;19922;-79
2022/10/23 07:55:52;;;;;;;;;;;13.20;99.90;;;;;;4958250;28;20329;-79
2022/10/23 07:58:18;;;;;;;;;;;13.20;99.90;;;;;;4960019;28;19910;-81
2022/10/23 08:00:44;;;;;;;;;;;13.30;99.90;;;;;;4962887;28;19961;-77
2022/10/23 08:03:11;;;;;;;;;;;13.40;99.90;;;;;;4962957;28;19917;-74
2022/10/23 08:05:37;;;;;;;;;;;13.50;99.90;;;;;;4960698;28;19921;-77
2022/10/23 08:08:02;;;;;;;;;;;13.60;99.90;;;;;;4960991;28;19913;-77
2022/10/23 08:10:28;;;;;;;;;;;13.70;99.90;;;;;;4971431;28;19914;-80
2022/10/23 08:12:53;;;;;;;;;;;13.70;99.90;;;;;;4976499;28;20012;-78
2022/10/23 08:15:18;;;;;;;;;;;13.70;99.90;;;;;;4963061;28;19920;-78
2022/10/23 08:17:44;;;;;;;;;;;13.80;99.90;;;;;;4960513;28;19910;-79
2022/10/23 08:20:09;;;;;;;;;;;13.80;99.90;;;;;;4953237;28;19914;-79
2022/10/23 08:22:36;;;;;;;;;;;13.80;99.90;;;;;;4962052;28;20425;-77
2022/10/23 08:25:01;;;;;;;;;;;13.90;99.90;;;;;;4965038;28;19910;-81
2022/10/23 08:27:26;;;;;;;;;;;13.90;99.90;;;;;;4962448;28;19993;-80
2022/10/23 08:29:52;;;;;;;;;;;13.90;99.90;;;;;;4954727;28;19918;-83
2022/10/23 08:32:17;;;;;;;;;;;14.00;99.90;;;;;;4970403;28;19932;-85
2022/10/23 08:34:43;;;;;;;;;;;14.10;99.90;;;;;;4962812;28;20142;-81
2022/10/23 08:37:08;;;;;;;;;;;14.20;99.90;;;;;;4968198;28;20009;-79
2022/10/23 08:39:34;;;;;;;;;;;14.30;99.90;;;;;;4958532;28;19997;-75
2022/10/23 08:41:59;;;;;;;;;;;14.50;99.90;;;;;;4963607;28;19913;-82
2022/10/23 08:44:28;;;;;;;;;;;14.60;99.90;;;;;;4964358;28;20337;-84
2022/10/23 08:47:06;;;;;;;;;;;14.70;99.90;;;;;;4957536;28;19910;-77
2022/10/23 08:49:49;;;;;;;;;;;14.90;99.90;;;;;;4949997;28;20273;-77
2022/10/23 08:52:24;;;;;;;;;;;14.90;99.90;;;;;;4950989;28;19949;-78
2022/10/23 08:55:09;;;;;;;;;;;15.10;99.90;;;;;;4955482;28;20266;-78
2022/10/23 08:57:42;;;;;;;;;;;15.20;99.90;;;;;;4953711;28;19914;-77
2022/10/23 09:00:11;;;;;;;;;;;15.30;99.90;;;;;;4958937;28;19918;-80
2022/10/23 09:02:41;;;;;;;;;;;15.30;99.90;;;;;;4958683;28;19910;-81
2022/10/23 09:05:12;;;;;;;;;;;15.50;99.90;;;;;;4948499;28;19914;-76
2022/10/23 09:07:40;;;;;;;;;;;15.60;99.90;;;;;;4952358;28;19910;-77
2022/10/23 09:10:17;;;;;;;;;;;15.70;99.90;;;;;;4958250;28;19918;-77
2022/10/23 09:12:43;;;;;;;;;;;15.80;99.90;;;;;;4952878;28;19910;-77
2022/10/23 09:15:14;;;;;;;;;;;15.80;99.90;;;;;;4961443;28;19937;-81
2022/10/23 09:17:42;;;;;;;;;;;15.90;99.90;;;;;;4963540;28;20376;-77
2022/10/23 09:20:19;;;;;;;;;;;16.00;99.90;;;;;;4951785;28;19969;-80
2022/10/23 09:22:46;;;;;;;;;;;16.00;99.90;;;;;;4955225;28;20388;-76
2022/10/23 09:25:20;;;;;;;;;;;16.10;99.90;;;;;;4965071;28;19992;-74
2022/10/23 09:27:49;;;;;;;;;;;16.10;99.90;;;;;;4963020;28;19933;-75
2022/10/23 09:30:30;;;;;;;;;;;16.20;99.90;;;;;;4956004;28;19926;-74
2022/10/23 09:32:56;;;;;;;;;;;16.30;99.90;;;;;;4971640;28;19988;-75
2022/10/23 09:35:23;;;;;;;;;;;16.40;99.90;;;;;;4965382;28;20001;-78
2022/10/23 09:37:51;;;;;;;;;;;16.40;99.90;;;;;;4962892;28;19910;-76
2022/10/23 09:40:17;;;;;;;;;;;16.50;99.90;;;;;;4959955;28;20354;-77
2022/10/23 09:43:08;;;;;;;;;;;16.60;99.90;;;;;;4954450;28;19910;-77
2022/10/23 09:45:34;;;;;;;;;;;16.70;99.90;;;;;;4956556;28;19917;-76
2022/10/23 09:48:08;;;;;;;;;;;16.90;99.90;;;;;;4959919;28;19967;-77
2022/10/23 09:50:34;;;;;;;;;;;17.10;99.90;;;;;;4957230;28;19922;-77
2022/10/23 09:52:59;;;;;;;;;;;17.20;99.90;;;;;;4953653;28;19957;-75
2022/10/23 09:55:25;;;;;;;;;;;17.30;99.90;;;;;;4954001;28;19965;-77
2022/10/23 09:57:51;;;;;;;;;;;17.50;99.90;;;;;;4965867;28;19917;-79
2022/10/23 10:00:18;;;;;;;;;;;17.70;99.90;;;;;;4960731;28;19917;-75
2022/10/23 10:03:13;;;;;;;;;;;17.80;99.90;;;;;;4957892;28;20005;-76
2022/10/23 10:05:40;;;;;;;;;;;17.80;99.90;;;;;;4944139;28;19910;-78
2022/10/23 10:08:14;;;;;;;;;;;18.00;99.90;;;;;;4971025;28;19934;-75
2022/10/23 10:10:43;;;;;;;;;;;18.00;99.90;;;;;;4960878;28;19955;-76
2022/10/23 10:13:18;;;;;;;;;;;18.20;99.90;;;;;;4954523;28;20502;-75
2022/10/23 10:15:54;;;;;;;;;;;18.40;99.90;;;;;;4955230;28;21012;-75
2022/10/23 10:18:27;;;;;;;;;;;18.60;99.90;;;;;;4963654;28;20801;-74
2022/10/23 10:20:56;;;;;;;;;;;18.70;99.90;;;;;;4962088;28;20001;-75
2022/10/23 10:23:33;;;;;;;;;;;18.80;99.90;;;;;;4964687;28;19916;-75
2022/10/23 10:26:04;;;;;;;;;;;19.00;99.90;;;;;;4965444;28;19925;-74
2022/10/23 10:28:49;;;;;;;;;;;19.20;99.90;;;;;;4965464;28;19910;-77
2022/10/23 10:31:20;;;;;;;;;;;19.20;99.90;;;;;;4960502;28;19922;-75
2022/10/23 10:34:15;;;;;;;;;;;19.30;99.90;;;;;;4965829;28;20473;-73
2022/10/23 10:36:49;;;;;;;;;;;19.30;99.90;;;;;;4927517;28;20005;-72
2022/10/23 10:39:30;;;;;;;;;;;19.50;99.90;;;;;;4969600;28;19949;-74
2022/10/23 10:42:01;;;;;;;;;;;19.90;99.90;;;;;;4958434;28;20254;-75
2022/10/23 10:44:30;;;;;;;;;;;20.80;98.20;;;;;;4953713;28;19933;-74
2022/10/23 10:46:57;;;;;;;;;;;22.60;93.10;;;;;;4959823;28;19957;-73
2022/10/23 10:49:23;;;;;;;;;;;24.10;86.10;;;;;;4947978;28;19918;-78
2022/10/23 10:52:12;;;;;;;;;;;25.40;74.90;;;;;;4953237;28;19914;-78
2022/10/23 10:54:49;;;;;;;;;;;27.40;66.10;;;;;;4950117;28;19926;-86
2022/10/23 10:57:35;;;;;;;;;;;28.10;61.70;;;;;;4948860;28;19925;-77
2022/10/23 11:00:11;;;;;;;;;;;28.90;58.00;;;;;;4957927;28;19918;-72
2022/10/23 11:02:56;;;;;;;;;;;29.10;55.00;;;;;;4951981;28;20408;-74
2022/10/23 11:05:24;;;;;;;;;;;27.10;58.80;;;;;;4953355;28;19910;-71
2022/10/23 11:07:55;;;;;;;;;;;27.40;60.70;;;;;;4954316;28;19921;-72
2022/10/23 11:10:21;;;;;;;;;;;26.20;62.80;;;;;;4953959;28;19922;-71
2022/10/23 11:12:47;;;;;;;;;;;25.90;63.00;;;;;;4957536;28;20316;-70
2022/10/23 11:15:27;;;;;;;;;;;25.20;65.80;;;;;;4946713;28;19957;-70
2022/10/23 11:17:56;;;;;;;;;;;24.50;68.30;;;;;;4952326;28;19917;-70
2022/10/23 11:20:32;;;;;;;;;;;24.30;70.40;;;;;;4956673;28;20547;-70
2022/10/23 11:23:16;;;;;;;;;;;25.00;70.00;;;;;;4951690;28;19973;-69
2022/10/23 11:26:02;;;;;;;;;;;26.20;66.80;;;;;;4957212;28;19917;-70
2022/10/23 11:28:47;;;;;;;;;;;26.80;62.80;;;;;;4947621;28;19917;-70
2022/10/23 11:31:27;;;;;;;;;;;27.20;63.30;;;;;;4948150;28;19925;-69
2022/10/23 11:34:04;;;;;;;;;;;26.90;64.20;;;;;;4954482;28;19961;-70
2022/10/23 11:36:36;;;;;;;;;;;27.40;61.90;;;;;;4951369;28;19918;-70
2022/10/23 11:39:13;;;;;;;;;;;27.60;61.00;;;;;;4951533;28;19917;-71
2022/10/23 11:41:46;;;;;;;;;;;27.50;60.80;;;;;;4950961;28;19922;-71
2022/10/23 11:44:23;;;;;;;;;;;27.70;59.60;;;;;;4958748;28;19914;-72
2022/10/23 11:46:58;;;;;;;;;;;28.10;58.40;;;;;;4959904;28;20002;-73
2022/10/23 11:49:23;;;;;;;;;;;29.70;57.50;;;;;;4950785;28;19965;-73
2022/10/23 11:51:58;;;;;;;;;;;30.60;54.70;;;;;;4955631;28;19945;-73
2022/10/23 11:54:25;;;;;;;;;;;29.70;55.10;;;;;;4954776;28;19914;-73
2022/10/23 11:57:05;;;;;;;;;;;29.30;55.50;;;;;;4950286;28;19917;-73
2022/10/23 11:59:32;;;;;;;;;;;29.00;56.70;;;;;;4947431;28;20286;-74
2022/10/23 12:01:59;;;;;;;;;;;29.20;56.40;;;;;;4946304;28;20064;-74
2022/10/23 12:04:54;;;;;;;;;;;29.50;56.40;;;;;;4957975;28;20017;-73
2022/10/23 12:07:29;;;;;;;;;;;29.20;56.60;;;;;;4953702;28;19922;-71
2022/10/23 12:09:59;;;;;;;;;;;29.30;56.80;;;;;;4954147;28;19960;-74
2022/10/23 12:12:27;;;;;;;;;;;30.30;55.00;;;;;;4966402;28;20684;-74
2022/10/23 12:15:05;;;;;;;;;;;31.00;53.00;;;;;;4961795;28;19969;-76
2022/10/23 12:17:34;;;;;;;;;;;31.80;52.40;;;;;;4958683;28;19985;-78
2022/10/23 12:20:12;;;;;;;;;;;32.30;50.10;;;;;;4949627;28;19922;-78
2022/10/23 12:22:40;;;;;;;;;;;31.10;50.70;;;;;;4955053;28;19914;-76
2022/10/23 12:25:18;;;;;;;;;;;30.40;52.90;;;;;;4945952;28;19993;-75
2022/10/23 12:28:02;;;;;;;;;;;29.40;54.20;;;;;;4956643;28;19954;-78
2022/10/23 12:30:31;;;;;;;;;;;30.20;54.30;;;;;;4963650;28;20364;-78
2022/10/23 12:32:56;;;;;;;;;;;31.20;52.70;;;;;;4945641;28;20277;-73
2022/10/23 12:35:48;;;;;;;;;;;30.80;52.20;;;;;;4956365;28;19918;-75
2022/10/23 12:38:14;;;;;;;;;;;28.80;54.70;;;;;;4959926;28;19914;-74
2022/10/23 12:40:43;;;;;;;;;;;26.70;59.20;;;;;;4958273;28;19909;-75
2022/10/23 12:43:20;;;;;;;;;;;25.80;62.80;;;;;;4960940;28;19933;-73
2022/10/23 12:45:46;;;;;;;;;;;24.60;65.80;;;;;;4961957;28;19914;-72
2022/10/23 12:48:19;;;;;;;;;;;23.80;69.10;;;;;;4953971;28;19917;-74
2022/10/23 12:50:47;;;;;;;;;;;23.50;71.10;;;;;;4954214;28;19914;-74
2022/10/23 12:53:14;;;;;;;;;;;23.00;74.20;;;;;;4951062;28;19993;-76
2022/10/23 12:55:52;;;;;;;;;;;22.30;76.50;;;;;;4963559;28;20325;-76
2022/10/23 12:58:18;;;;;;;;;;;21.90;79.20;;;;;;4954289;28;21441;-76
2022/10/23 13:00:51;;;;;;;;;;;21.60;82.00;;;;;;4957047;28;20330;-75
2022/10/23 13:03:18;;;;;;;;;;;21.40;84.00;;;;;;4959297;28;19987;-74
2022/10/23 13:05:44;;;;;;;;;;;21.30;85.40;;;;;;4963573;28;19997;-74
2022/10/23 13:08:10;;;;;;;;;;;21.20;86.40;;;;;;4957661;28;20008;-73
2022/10/23 13:10:35;;;;;;;;;;;21.00;87.80;;;;;;4960607;28;19953;-77
2022/10/23 13:13:03;;;;;;;;;;;20.90;87.70;;;;;;4956676;28;19921;-75
2022/10/23 13:15:38;;;;;;;;;;;20.70;90.00;;;;;;4960901;28;20396;-75
2022/10/23 13:18:05;;;;;;;;;;;20.70;91.40;;;;;;4953769;28;19929;-75
2022/10/23 13:20:36;;;;;;;;;;;20.50;92.60;;;;;;4959674;28;19918;-76
2022/10/23 13:23:09;;;;;;;;;;;20.40;92.70;;;;;;4959721;28;20005;-74
2022/10/23 13:25:36;;;;;;;;;;;20.30;93.80;;;;;;4960745;28;19917;-74
2022/10/23 13:28:24;;;;;;;;;;;20.10;94.30;;;;;;4960703;28;20581;-75
2022/10/23 13:31:01;;;;;;;;;;;20.10;95.70;;;;;;4954972;28;19924;-76
2022/10/23 13:33:32;;;;;;;;;;;20.10;95.70;;;;;;4955006;28;19917;-82
2022/10/23 13:35:59;;;;;;;;;;;20.60;94.40;;;;;;4956516;28;20012;-74
2022/10/23 13:38:28;;;;;;;;;;;20.60;93.80;;;;;;4961800;28;20337;-76
2022/10/23 13:40:54;;;;;;;;;;;21.10;93.80;;;;;;4961135;28;20451;-78
2022/10/23 13:43:22;;;;;;;;;;;21.60;93.00;;;;;;4952693;28;19910;-80
2022/10/23 13:45:47;;;;;;;;;;;21.80;92.20;;;;;;4962395;28;19910;-77
2022/10/23 13:48:14;;;;;;;;;;;21.60;91.90;;;;;;4955090;28;19965;-77
2022/10/23 13:50:39;;;;;;;;;;;21.30;91.10;;;;;;4966670;28;19920;-76
2022/10/23 13:53:04;;;;;;;;;;;20.90;92.20;;;;;;4956971;28;19910;-76
2022/10/23 13:55:30;;;;;;;;;;;20.50;93.10;;;;;;4947843;28;19918;-77
2022/10/23 13:57:55;;;;;;;;;;;20.50;94.00;;;;;;4953909;28;19965;-77
2022/10/23 14:00:21;;;;;;;;;;;20.50;93.70;;;;;;4958633;28;19914;-80
2022/10/23 14:02:46;;;;;;;;;;;20.70;93.50;;;;;;4948428;28;19965;-78
2022/10/23 14:05:12;;;;;;;;;;;20.80;93.20;;;;;;4955391;28;19914;-82
2022/10/23 14:07:37;;;;;;;;;;;20.80;93.30;;;;;;4954032;28;19962;-73
2022/10/23 14:10:03;;;;;;;;;;;20.70;92.80;;;;;;4947522;28;19972;-74
2022/10/23 14:12:28;;;;;;;;;;;20.70;93.00;;;;;;4956683;28;19913;-77
2022/10/23 14:14:53;;;;;;;;;;;20.40;93.50;;;;;;4947518;28;19910;-77
2022/10/23 14:17:19;;;;;;;;;;;20.20;94.00;;;;;;4955445;28;19964;-78
2022/10/23 14:19:44;;;;;;;;;;;20.00;94.80;;;;;;4965482;28;19910;-80
2022/10/23 14:22:13;;;;;;;;;;;19.80;96.00;;;;;;4952399;28;19926;-77
2022/10/23 14:24:38;;;;;;;;;;;19.60;96.50;;;;;;4947315;28;19921;-74
2022/10/23 14:27:04;;;;;;;;;;;19.40;96.80;;;;;;4949203;28;19917;-75
2022/10/23 14:29:29;;;;;;;;;;;19.40;97.60;;;;;;4940798;28;20274;-77
2022/10/23 14:31:55;;;;;;;;;;;19.50;97.80;;;;;;4947478;28;20553;-78
2022/10/23 14:34:20;;;;;;;;;;;19.50;98.50;;;;;;4957492;28;19958;-75